Time;durP1;ratioP1;P1;durP2;ratioP2;P2;SDS_P1;SDS_P2;PMS_P1;PMS_P2;Temp;Humidity;BMP_temperature;BMP_pressure;BME280_temperature;BME280_humidity;BME280_pressure;Samples;Min_cycle;Max_cycle;Signal;HPM_P1;HPM_P2
2023/10/26 00:00:50;;;;;;;21.48;16.98;;;10.50;99.90;;;;;;7343778;32;20492;-57
2023/10/26 00:04:52;;;;;;;22.98;17.55;;;10.40;99.90;;;;;;7356145;32;20661;-57
2023/10/26 00:08:54;;;;;;;22.90;16.70;;;10.40;99.90;;;;;;7349826;32;20537;-58
2023/10/26 00:12:55;;;;;;;22.98;16.92;;;10.30;99.90;;;;;;7355020;32;20130;-57
2023/10/26 00:16:57;;;;;;;22.00;16.48;;;10.40;99.90;;;;;;7351135;32;20457;-58
2023/10/26 00:21:00;;;;;;;24.10;16.67;;;10.40;99.90;;;;;;7352165;32;20525;-57
2023/10/26 00:25:03;;;;;;;21.70;16.00;;;10.40;99.90;;;;;;7353517;32;20111;-57
2023/10/26 00:29:04;;;;;;;23.05;16.35;;;10.40;99.90;;;;;;7354171;32;20113;-57
2023/10/26 00:33:06;;;;;;;19.75;15.10;;;10.40;99.90;;;;;;7353803;32;20213;-57
2023/10/26 00:37:08;;;;;;;21.58;16.02;;;10.40;99.90;;;;;;7350502;32;20133;-58
2023/10/26 00:41:10;;;;;;;24.42;15.05;;;10.40;99.90;;;;;;7354600;32;20186;-57
2023/10/26 00:45:11;;;;;;;19.83;16.12;;;10.40;99.90;;;;;;7341117;32;20223;-57
2023/10/26 00:49:15;;;;;;;22.30;16.40;;;10.30;99.90;;;;;;7347837;32;20337;-57
2023/10/26 00:53:19;;;;;;;21.45;15.68;;;10.30;99.90;;;;;;7345948;32;20111;-57
2023/10/26 00:57:23;;;;;;;22.13;15.98;;;10.30;99.90;;;;;;7347524;32;20198;-57
2023/10/26 01:01:26;;;;;;;19.73;15.85;;;10.30;99.90;;;;;;7349810;32;20100;-58
2023/10/26 01:05:28;;;;;;;23.02;16.87;;;10.30;99.90;;;;;;7352124;32;20281;-57
2023/10/26 01:09:30;;;;;;;22.17;16.42;;;10.30;99.90;;;;;;7351075;32;20115;-56
2023/10/26 01:13:33;;;;;;;23.87;16.40;;;10.30;99.90;;;;;;7358547;32;20332;-57
2023/10/26 01:17:38;;;;;;;19.77;16.12;;;10.30;99.90;;;;;;7349452;32;20108;-57
2023/10/26 01:21:53;;;;;;;22.65;17.50;;;10.30;99.90;;;;;;7352787;32;20108;-58
2023/10/26 01:25:56;;;;;;;22.98;17.15;;;10.30;99.90;;;;;;7350358;32;20111;-56
2023/10/26 01:29:58;;;;;;;21.30;16.85;;;10.30;99.90;;;;;;7351673;32;20106;-58
2023/10/26 01:34:00;;;;;;;20.98;16.95;;;10.30;99.90;;;;;;7351256;32;20454;-57
2023/10/26 01:38:02;;;;;;;21.67;16.23;;;10.30;99.90;;;;;;7346839;32;20165;-57
2023/10/26 01:42:09;;;;;;;19.92;15.48;;;10.30;99.90;;;;;;7350372;32;20587;-57
2023/10/26 01:46:11;;;;;;;18.27;14.70;;;10.30;99.90;;;;;;7357663;32;20202;-57
2023/10/26 01:50:13;;;;;;;21.50;16.37;;;10.30;99.90;;;;;;7355268;32;20233;-56
2023/10/26 01:54:15;;;;;;;21.70;16.08;;;10.30;99.90;;;;;;7349566;32;20160;-56
2023/10/26 01:58:16;;;;;;;18.00;14.65;;;10.20;99.90;;;;;;7351390;32;20137;-56
2023/10/26 02:02:18;;;;;;;20.33;15.32;;;10.20;99.90;;;;;;7352328;32;20193;-56
2023/10/26 02:06:20;;;;;;;18.55;14.85;;;10.10;99.90;;;;;;7356355;32;20357;-58
2023/10/26 02:10:25;;;;;;;19.02;15.27;;;10.10;99.90;;;;;;7356351;32;20229;-56
2023/10/26 02:14:27;;;;;;;19.87;15.73;;;10.10;99.90;;;;;;7345658;32;20122;-56
2023/10/26 02:18:29;;;;;;;22.23;16.60;;;10.10;99.90;;;;;;7356282;32;20820;-60
2023/10/26 02:22:31;;;;;;;20.25;15.88;;;10.20;99.90;;;;;;7345345;32;20127;-58
2023/10/26 02:26:33;;;;;;;22.45;16.23;;;10.10;99.90;;;;;;7350610;32;20164;-56
2023/10/26 02:30:34;;;;;;;19.58;15.48;;;10.10;99.90;;;;;;7351647;32;20163;-57
2023/10/26 02:34:36;;;;;;;20.12;16.33;;;10.00;99.90;;;;;;7353958;32;20279;-56
2023/10/26 02:38:38;;;;;;;19.92;15.38;;;10.10;99.90;;;;;;7341688;32;20454;-56
2023/10/26 02:42:40;;;;;;;19.65;16.50;;;10.10;99.90;;;;;;7359041;32;20183;-57
2023/10/26 02:46:42;;;;;;;21.00;15.20;;;10.00;99.90;;;;;;7353159;32;20185;-57
2023/10/26 02:50:44;;;;;;;19.92;15.10;;;10.10;99.90;;;;;;7346922;32;20112;-57
2023/10/26 02:54:45;;;;;;;19.60;16.00;;;10.00;99.90;;;;;;7349873;32;20342;-57
2023/10/26 02:58:47;;;;;;;22.05;14.87;;;10.10;99.90;;;;;;7352854;32;20978;-56
2023/10/26 03:02:49;;;;;;;22.02;16.08;;;10.00;99.90;;;;;;7350553;32;20203;-56
2023/10/26 03:06:51;;;;;;;22.15;16.15;;;10.00;99.90;;;;;;7347279;32;20194;-56
2023/10/26 03:10:52;;;;;;;21.67;16.00;;;10.00;99.90;;;;;;7345544;32;20103;-57
2023/10/26 03:14:54;;;;;;;18.40;15.63;;;10.00;99.90;;;;;;7344509;32;20122;-57
2023/10/26 03:18:56;;;;;;;18.87;15.23;;;10.10;99.90;;;;;;7352050;32;20119;-57
2023/10/26 03:22:58;;;;;;;17.90;14.85;;;10.00;99.90;;;;;;7347621;32;20194;-57
2023/10/26 03:27:00;;;;;;;20.55;15.73;;;10.00;99.90;;;;;;7357575;32;20103;-57
2023/10/26 03:31:01;;;;;;;19.23;15.10;;;10.10;99.90;;;;;;7352390;32;20107;-57
2023/10/26 03:35:04;;;;;;;25.48;14.57;;;10.00;99.90;;;;;;7353879;32;20126;-57
2023/10/26 03:39:05;;;;;;;18.52;14.63;;;10.00;99.90;;;;;;7351383;32;20103;-55
2023/10/26 03:43:07;;;;;;;18.75;13.68;;;10.00;99.90;;;;;;7351631;32;20309;-58
2023/10/26 03:47:09;;;;;;;17.80;13.90;;;10.00;99.90;;;;;;7351876;32;20265;-57
2023/10/26 03:51:11;;;;;;;17.27;13.80;;;10.00;99.90;;;;;;7354064;32;20173;-58
2023/10/26 03:55:12;;;;;;;17.80;13.30;;;10.00;99.90;;;;;;7348911;32;20264;-57
2023/10/26 03:59:14;;;;;;;18.37;13.23;;;10.00;99.90;;;;;;7353980;32;20115;-57
2023/10/26 04:03:16;;;;;;;17.52;13.55;;;10.00;99.90;;;;;;7356628;32;20111;-57
2023/10/26 04:07:18;;;;;;;19.10;13.27;;;9.90;99.90;;;;;;7347030;32;20111;-57
2023/10/26 04:11:20;;;;;;;19.65;14.98;;;9.90;99.90;;;;;;7342364;32;20142;-57
2023/10/26 04:15:21;;;;;;;20.52;14.82;;;10.00;99.90;;;;;;7348908;32;20301;-57
2023/10/26 04:19:23;;;;;;;18.20;14.60;;;9.90;99.90;;;;;;7350678;32;20121;-57
2023/10/26 04:23:26;;;;;;;20.77;15.50;;;9.90;99.90;;;;;;7350174;32;20129;-57
2023/10/26 04:27:28;;;;;;;22.17;15.75;;;9.90;99.90;;;;;;7344754;32;20177;-58
2023/10/26 04:31:29;;;;;;;21.10;15.23;;;9.90;99.90;;;;;;7351044;32;20120;-58
2023/10/26 04:35:31;;;;;;;19.12;15.10;;;9.90;99.90;;;;;;7340547;32;20497;-58
2023/10/26 04:39:33;;;;;;;19.27;15.70;;;9.90;99.90;;;;;;7350358;32;20270;-57
2023/10/26 04:43:35;;;;;;;20.35;15.60;;;9.90;99.90;;;;;;7355514;32;20152;-56
2023/10/26 04:47:37;;;;;;;23.17;16.17;;;9.90;99.90;;;;;;7352440;32;20195;-57
2023/10/26 04:51:39;;;;;;;21.80;17.10;;;9.90;99.90;;;;;;7350395;32;20776;-58
2023/10/26 04:55:41;;;;;;;25.20;15.98;;;9.90;99.90;;;;;;7353123;32;20271;-57
2023/10/26 04:59:43;;;;;;;19.02;14.43;;;9.90;99.90;;;;;;7347052;32;20194;-58
2023/10/26 05:03:44;;;;;;;20.80;16.17;;;9.90;99.90;;;;;;7338955;32;20147;-58
2023/10/26 05:07:46;;;;;;;21.90;17.62;;;10.00;99.90;;;;;;7350911;32;20229;-57
2023/10/26 05:11:48;;;;;;;20.02;15.50;;;9.90;99.90;;;;;;7352354;32;20139;-57
2023/10/26 05:15:50;;;;;;;21.70;16.48;;;9.90;99.90;;;;;;7349879;32;20162;-59
2023/10/26 05:19:51;;;;;;;21.08;16.75;;;9.90;99.90;;;;;;7355275;32;20287;-57
2023/10/26 05:23:53;;;;;;;24.65;16.30;;;10.00;99.90;;;;;;7344500;32;20207;-57
2023/10/26 05:27:55;;;;;;;21.23;16.27;;;10.00;99.90;;;;;;7344597;32;20304;-56
2023/10/26 05:31:57;;;;;;;22.35;16.87;;;9.90;99.90;;;;;;7349026;32;20099;-57
2023/10/26 05:35:59;;;;;;;22.48;16.12;;;9.90;99.90;;;;;;7349813;32;20150;-58
2023/10/26 05:40:01;;;;;;;24.73;16.55;;;9.90;99.90;;;;;;7344480;32;20972;-57
2023/10/26 05:44:03;;;;;;;23.40;17.33;;;9.90;99.90;;;;;;7353272;32;20125;-58
2023/10/26 05:48:05;;;;;;;23.33;16.05;;;9.90;99.90;;;;;;7352612;32;20294;-57
2023/10/26 05:52:07;;;;;;;22.45;16.80;;;9.90;99.90;;;;;;7346523;32;20111;-57
2023/10/26 05:56:10;;;;;;;23.52;16.10;;;9.90;99.90;;;;;;7345371;32;20115;-57
2023/10/26 06:00:12;;;;;;;27.50;17.92;;;9.90;99.90;;;;;;7351648;32;20565;-57
2023/10/26 06:04:14;;;;;;;23.55;17.17;;;9.90;99.90;;;;;;7353747;32;20792;-57
2023/10/26 06:08:17;;;;;;;24.17;16.67;;;9.90;99.90;;;;;;7349322;32;20135;-57
2023/10/26 06:12:18;;;;;;;27.75;18.50;;;9.90;99.90;;;;;;7351968;32;20209;-57
2023/10/26 06:16:20;;;;;;;24.12;17.08;;;9.90;99.90;;;;;;7346751;32;20095;-58
2023/10/26 06:20:27;;;;;;;24.05;17.48;;;9.90;99.90;;;;;;7350989;32;20107;-57
2023/10/26 06:24:29;;;;;;;23.90;17.20;;;9.90;99.90;;;;;;7353735;32;20908;-58
2023/10/26 06:28:31;;;;;;;25.08;18.40;;;9.90;99.90;;;;;;7356979;32;20486;-58
2023/10/26 06:32:34;;;;;;;22.70;16.35;;;9.90;99.90;;;;;;7354018;32;20163;-58
2023/10/26 06:36:36;;;;;;;24.15;16.40;;;9.80;99.90;;;;;;7350306;32;20121;-57
2023/10/26 06:40:38;;;;;;;23.55;17.00;;;9.80;99.90;;;;;;7356946;32;20233;-57
2023/10/26 06:44:40;;;;;;;26.05;18.35;;;9.90;99.90;;;;;;7352763;32;20152;-57
2023/10/26 06:48:42;;;;;;;25.50;17.95;;;9.80;99.90;;;;;;7334242;32;20445;-57
2023/10/26 06:52:44;;;;;;;25.15;16.40;;;9.90;99.90;;;;;;7349031;32;20220;-59
2023/10/26 06:56:46;;;;;;;26.08;18.27;;;9.80;99.90;;;;;;7355349;32;20176;-57
2023/10/26 07:00:47;;;;;;;27.42;18.00;;;9.90;99.90;;;;;;7344379;32;20163;-58
2023/10/26 07:04:54;;;;;;;24.55;18.33;;;10.00;99.90;;;;;;7342565;32;20198;-57
2023/10/26 07:08:55;;;;;;;25.73;17.35;;;10.00;99.90;;;;;;7346661;32;20626;-57
2023/10/26 07:12:57;;;;;;;32.92;19.17;;;10.00;99.90;;;;;;7344912;32;20186;-57
2023/10/26 07:16:59;;;;;;;23.77;17.80;;;10.00;99.90;;;;;;7352868;32;20349;-57
2023/10/26 07:21:05;;;;;;;24.17;18.15;;;9.90;99.90;;;;;;7350199;32;20096;-57
2023/10/26 07:25:07;;;;;;;26.52;18.15;;;10.00;99.90;;;;;;7351306;32;20226;-59
2023/10/26 07:29:09;;;;;;;23.45;16.12;;;10.00;99.90;;;;;;7348458;32;20115;-58
2023/10/26 07:33:11;;;;;;;25.67;19.65;;;9.90;99.90;;;;;;7352077;32;21291;-58
2023/10/26 07:37:13;;;;;;;29.35;19.50;;;9.90;99.90;;;;;;7348089;32;20529;-58
2023/10/26 07:41:15;;;;;;;25.75;17.98;;;9.90;99.90;;;;;;7352162;32;20176;-58
2023/10/26 07:45:16;;;;;;;24.12;18.00;;;9.80;99.90;;;;;;7346737;32;20132;-58
2023/10/26 07:49:18;;;;;;;27.48;18.60;;;9.90;99.90;;;;;;7349957;32;20107;-57
2023/10/26 07:53:20;;;;;;;25.88;17.62;;;9.90;99.90;;;;;;7339489;32;20154;-58
2023/10/26 07:57:22;;;;;;;27.52;19.08;;;10.10;99.90;;;;;;7333603;32;20197;-57
2023/10/26 08:01:24;;;;;;;24.90;16.58;;;10.10;99.90;;;;;;7349800;32;20284;-57
2023/10/26 08:05:26;;;;;;;26.00;16.92;;;10.10;99.90;;;;;;7345160;32;20107;-57
2023/10/26 08:09:31;;;;;;;27.05;17.55;;;10.20;99.90;;;;;;7344553;32;20171;-59
2023/10/26 08:13:33;;;;;;;23.38;15.63;;;10.20;99.90;;;;;;7348474;32;20111;-58
2023/10/26 08:17:36;;;;;;;20.67;15.65;;;10.30;99.90;;;;;;7356506;32;20546;-57
2023/10/26 08:21:37;;;;;;;22.13;15.85;;;10.20;99.90;;;;;;7341040;32;20103;-57
2023/10/26 08:25:39;;;;;;;22.87;16.10;;;10.30;99.90;;;;;;7347015;32;20613;-58
2023/10/26 08:29:41;;;;;;;23.05;17.20;;;10.40;99.90;;;;;;7344181;32;20229;-58
2023/10/26 08:33:43;;;;;;;24.17;16.60;;;10.50;99.90;;;;;;7346979;32;20119;-58
2023/10/26 08:37:45;;;;;;;25.12;17.42;;;10.60;99.90;;;;;;7345578;32;20129;-57
2023/10/26 08:41:57;;;;;;;22.23;15.10;;;10.60;99.90;;;;;;7344907;32;20161;-57
2023/10/26 08:46:03;;;;;;;19.42;14.68;;;10.50;99.90;;;;;;7336242;32;20217;-59
2023/10/26 08:50:06;;;;;;;20.50;14.27;;;10.50;99.90;;;;;;7336853;32;20670;-58
2023/10/26 08:54:17;;;;;;;22.05;13.95;;;10.50;99.90;;;;;;7343885;32;20175;-57
2023/10/26 08:58:20;;;;;;;15.68;12.45;;;10.50;99.90;;;;;;7353516;32;20187;-58
2023/10/26 09:02:22;;;;;;;17.95;12.60;;;10.50;99.90;;;;;;7341570;32;20187;-58
2023/10/26 09:06:24;;;;;;;15.88;12.77;;;10.50;99.90;;;;;;7346155;32;20386;-58
2023/10/26 09:10:30;;;;;;;14.70;11.57;;;10.50;99.90;;;;;;7348555;32;20205;-58
2023/10/26 09:14:32;;;;;;;17.12;12.10;;;10.60;99.90;;;;;;7352591;32;20119;-57
2023/10/26 09:18:35;;;;;;;14.98;10.98;;;10.70;99.90;;;;;;7348085;32;20379;-57
2023/10/26 09:22:38;;;;;;;15.75;12.32;;;10.80;99.90;;;;;;7344516;32;20126;-57
2023/10/26 09:26:40;;;;;;;17.50;11.10;;;11.00;99.90;;;;;;7344260;32;20108;-58
2023/10/26 09:30:42;;;;;;;13.43;9.80;;;11.20;99.90;;;;;;7350509;32;20245;-57
2023/10/26 09:34:45;;;;;;;12.60;9.63;;;11.40;99.90;;;;;;7349340;32;20157;-57
2023/10/26 09:38:48;;;;;;;11.45;8.05;;;11.50;99.90;;;;;;7345236;32;20107;-57
2023/10/26 09:42:50;;;;;;;10.02;7.85;;;11.50;99.90;;;;;;7351616;32;20107;-58
2023/10/26 09:46:52;;;;;;;10.05;7.57;;;11.50;99.90;;;;;;7352502;32;20220;-58
2023/10/26 09:50:57;;;;;;;11.30;7.32;;;11.40;99.90;;;;;;7355188;32;20661;-58
2023/10/26 09:54:59;;;;;;;10.85;7.70;;;11.40;99.90;;;;;;7355428;32;20182;-59
2023/10/26 09:59:01;;;;;;;11.57;8.70;;;11.40;99.90;;;;;;7353376;32;20538;-58
2023/10/26 10:03:17;;;;;;;10.25;8.35;;;11.50;99.90;;;;;;7351352;32;20551;-58
2023/10/26 10:07:43;;;;;;;11.12;8.57;;;11.50;99.90;;;;;;7343968;32;20165;-59
2023/10/26 10:12:07;;;;;;;15.20;10.05;;;11.60;99.90;;;;;;7346547;32;20131;-58
2023/10/26 10:16:34;;;;;;;11.00;9.30;;;11.50;99.90;;;;;;7345305;32;20258;-58
2023/10/26 10:20:40;;;;;;;14.32;8.63;;;11.60;99.90;;;;;;7345289;32;20160;-58
2023/10/26 10:24:43;;;;;;;10.77;9.40;;;11.60;99.90;;;;;;7345749;32;20116;-58
2023/10/26 10:28:50;;;;;;;11.80;9.23;;;11.60;99.90;;;;;;7346046;32;20198;-59
2023/10/26 10:32:53;;;;;;;;;;;11.50;99.90;;;;;;7344991;32;20289;-58
2023/10/26 10:37:11;;;;;;;11.15;8.35;;;11.50;99.90;;;;;;7345979;32;20141;-58
2023/10/26 10:41:15;;;;;;;12.18;9.35;;;11.50;99.90;;;;;;7342803;32;20218;-57
2023/10/26 10:45:18;;;;;;;11.02;9.02;;;11.70;99.90;;;;;;7345919;32;20120;-58
2023/10/26 10:49:23;;;;;;;12.40;9.57;;;11.20;99.90;;;;;;7342376;32;20773;-58
2023/10/26 10:53:27;;;;;;;11.50;9.23;;;10.90;99.90;;;;;;7346965;32;20287;-58
2023/10/26 10:57:29;;;;;;;11.35;9.02;;;10.90;99.90;;;;;;7336728;32;20502;-57
2023/10/26 11:01:32;;;;;;;10.63;8.68;;;11.40;99.90;;;;;;7339730;32;20615;-58
2023/10/26 11:05:39;;;;;;;12.52;9.40;;;11.60;99.90;;;;;;7354757;32;20123;-57
2023/10/26 11:09:41;;;;;;;11.75;8.00;;;11.80;99.90;;;;;;7350797;32;20150;-57
2023/10/26 11:13:43;;;;;;;9.35;6.78;;;11.80;99.90;;;;;;7346819;32;20138;-57
2023/10/26 11:17:45;;;;;;;10.73;7.07;;;11.70;99.90;;;;;;7346871;32;20130;-58
2023/10/26 11:21:52;;;;;;;8.50;6.70;;;12.00;99.90;;;;;;7347549;32;20111;-57
2023/10/26 11:25:54;;;;;;;9.77;6.32;;;12.00;99.90;;;;;;7344722;32;20869;-57
2023/10/26 11:30:02;;;;;;;8.63;5.78;;;11.90;99.90;;;;;;7342393;32;20608;-57
2023/10/26 11:34:07;;;;;;;9.15;5.70;;;11.80;99.90;;;;;;7344015;32;20184;-57
2023/10/26 11:38:08;;;;;;;5.78;4.40;;;12.00;99.90;;;;;;7349486;32;20172;-58
2023/10/26 11:42:10;;;;;;;5.80;4.87;;;12.00;99.90;;;;;;7347437;32;20570;-58
2023/10/26 11:46:12;;;;;;;6.75;5.07;;;12.10;99.90;;;;;;7343508;32;20210;-58
2023/10/26 11:50:36;;;;;;;7.95;5.80;;;11.80;99.90;;;;;;7348544;32;20262;-57
2023/10/26 11:54:50;;;;;;;8.27;6.65;;;11.80;99.90;;;;;;7354545;32;20127;-58
2023/10/26 11:58:52;;;;;;;8.88;6.62;;;11.50;99.90;;;;;;7351977;32;20130;-59
2023/10/26 12:02:58;;;;;;;7.45;6.43;;;11.80;99.90;;;;;;7355912;32;20539;-58
2023/10/26 12:07:00;;;;;;;8.43;7.35;;;12.00;99.90;;;;;;7344688;32;20133;-58
2023/10/26 12:11:03;;;;;;;8.95;6.60;;;11.80;99.90;;;;;;7346502;32;20110;-58
2023/10/26 12:15:06;;;;;;;10.82;8.18;;;11.60;99.90;;;;;;7339742;32;20190;-58
2023/10/26 12:19:10;;;;;;;10.15;7.35;;;11.70;99.90;;;;;;7349284;32;20721;-59
2023/10/26 12:23:11;;;;;;;9.27;7.00;;;11.60;99.90;;;;;;7348371;32;20516;-58
2023/10/26 12:27:16;;;;;;;8.55;7.00;;;11.90;99.90;;;;;;7349033;32;21878;-58
2023/10/26 12:31:18;;;;;;;9.15;6.50;;;12.00;99.90;;;;;;7355105;32;20202;-59
2023/10/26 12:35:20;;;;;;;9.50;5.80;;;11.90;99.90;;;;;;7348310;32;20334;-59
2023/10/26 12:39:22;;;;;;;12.15;5.50;;;11.80;99.90;;;;;;7342009;32;20127;-59
2023/10/26 12:43:24;;;;;;;7.45;5.75;;;12.10;99.90;;;;;;7348134;32;20167;-58
2023/10/26 12:47:25;;;;;;;7.30;4.82;;;12.30;99.90;;;;;;7341685;32;20226;-58
2023/10/26 12:51:27;;;;;;;6.82;5.22;;;12.20;99.90;;;;;;7345341;32;20193;-59
2023/10/26 12:55:29;;;;;;;7.47;5.40;;;12.10;99.90;;;;;;7344829;32;20144;-59
2023/10/26 12:59:31;;;;;;;7.82;5.97;;;12.20;99.90;;;;;;7339824;32;20139;-59
2023/10/26 13:03:33;;;;;;;7.10;5.95;;;12.40;99.90;;;;;;7341382;32;20253;-59
2023/10/26 13:07:35;;;;;;;7.93;6.50;;;12.50;99.90;;;;;;7342539;32;20171;-63
2023/10/26 13:11:36;;;;;;;9.73;7.50;;;12.50;99.90;;;;;;7344757;32;20137;-63
2023/10/26 13:15:39;;;;;;;9.70;7.80;;;12.40;99.90;;;;;;7343851;32;20163;-63
2023/10/26 13:19:41;;;;;;;9.32;6.20;;;12.40;99.90;;;;;;7345533;32;20107;-64
2023/10/26 13:23:43;;;;;;;11.15;7.37;;;12.50;99.90;;;;;;7339878;32;20215;-58
2023/10/26 13:27:45;;;;;;;7.43;6.07;;;12.60;99.90;;;;;;7347630;32;20115;-58
2023/10/26 13:31:46;;;;;;;8.40;7.37;;;12.60;99.90;;;;;;7331029;32;20112;-58
2023/10/26 13:35:48;;;;;;;7.57;6.62;;;12.60;99.90;;;;;;7338417;32;20103;-58
2023/10/26 13:39:50;;;;;;;8.65;6.87;;;12.80;99.90;;;;;;7341371;32;20194;-58
2023/10/26 13:43:53;;;;;;;12.00;6.82;;;12.80;99.90;;;;;;7336536;32;20134;-59
2023/10/26 13:47:55;;;;;;;7.95;6.45;;;13.00;99.90;;;;;;7349115;32;20151;-59
2023/10/26 13:51:56;;;;;;;8.60;7.20;;;13.00;99.90;;;;;;7342775;32;20260;-58
2023/10/26 13:56:01;;;;;;;6.20;5.43;;;12.80;99.90;;;;;;7349492;32;20129;-59
2023/10/26 14:00:06;;;;;;;6.78;6.07;;;12.70;99.90;;;;;;7343756;32;20277;-57
2023/10/26 14:04:08;;;;;;;8.82;6.82;;;12.80;99.90;;;;;;7347166;32;20127;-58
2023/10/26 14:08:10;;;;;;;6.87;6.03;;;12.70;99.90;;;;;;7340067;32;20735;-57
2023/10/26 14:12:13;;;;;;;6.20;5.07;;;12.70;99.90;;;;;;7346521;32;20622;-57
2023/10/26 14:16:15;;;;;;;6.12;5.53;;;12.60;99.90;;;;;;7358157;32;20136;-57
2023/10/26 14:20:17;;;;;;;6.65;5.25;;;12.50;99.90;;;;;;7346347;32;20633;-57
2023/10/26 14:24:19;;;;;;;6.62;5.32;;;12.60;99.90;;;;;;7347622;32;20547;-57
2023/10/26 14:28:21;;;;;;;6.95;6.25;;;12.40;99.90;;;;;;7360009;32;20219;-58
2023/10/26 14:32:22;;;;;;;8.48;6.85;;;12.10;99.90;;;;;;7355224;32;20116;-57
2023/10/26 14:36:24;;;;;;;7.80;6.18;;;11.90;99.90;;;;;;7359314;32;20250;-59
2023/10/26 14:40:26;;;;;;;5.95;5.12;;;11.70;99.90;;;;;;7349402;32;20584;-58
2023/10/26 14:44:30;;;;;;;7.10;5.53;;;11.60;99.90;;;;;;7355506;32;20130;-58
2023/10/26 14:48:32;;;;;;;9.13;6.37;;;11.70;99.90;;;;;;7357151;32;20134;-57
2023/10/26 14:52:34;;;;;;;6.93;6.22;;;11.60;99.90;;;;;;7360048;32;20100;-58
2023/10/26 14:56:36;;;;;;;6.10;5.40;;;11.50;99.90;;;;;;7355495;32;20578;-57
2023/10/26 15:00:38;;;;;;;7.43;5.95;;;11.60;99.90;;;;;;7354846;32;20658;-57
2023/10/26 15:04:40;;;;;;;6.87;6.18;;;11.70;99.90;;;;;;7356041;32;20112;-58
2023/10/26 15:08:42;;;;;;;5.20;4.62;;;11.70;99.90;;;;;;7359024;32;20216;-58
2023/10/26 15:12:44;;;;;;;6.57;5.85;;;11.80;99.90;;;;;;7342492;32;20544;-57
2023/10/26 15:16:46;;;;;;;7.90;6.78;;;11.70;99.90;;;;;;7347401;32;20188;-58
2023/10/26 15:20:47;;;;;;;10.48;8.20;;;11.80;99.90;;;;;;7348902;32;20277;-58
2023/10/26 15:24:49;;;;;;;8.50;7.53;;;11.70;99.90;;;;;;7353912;32;20126;-58
2023/10/26 15:28:51;;;;;;;7.95;6.85;;;11.60;99.90;;;;;;7340289;32;20829;-58
2023/10/26 15:32:53;;;;;;;9.93;8.20;;;11.50;99.90;;;;;;7342271;32;20657;-59
2023/10/26 15:36:55;;;;;;;10.18;7.32;;;11.30;99.90;;;;;;7351568;32;20445;-58
2023/10/26 15:41:03;;;;;;;7.35;6.62;;;11.30;99.90;;;;;;7337145;32;20929;-58
2023/10/26 15:45:05;;;;;;;12.88;10.20;;;11.30;99.90;;;;;;7353853;32;20190;-58
2023/10/26 15:49:07;;;;;;;13.93;10.32;;;11.30;99.90;;;;;;7324799;32;20543;-59
2023/10/26 15:53:30;;;;;;;15.48;10.07;;;11.40;99.90;;;;;;7352412;32;20236;-58
2023/10/26 15:57:32;;;;;;;11.93;9.02;;;11.30;99.90;;;;;;7354273;32;20334;-58
2023/10/26 16:01:34;;;;;;;9.90;8.68;;;11.30;99.90;;;;;;7348379;32;20121;-56
2023/10/26 16:05:36;;;;;;;11.55;8.60;;;11.40;99.90;;;;;;7356668;32;20201;-56
2023/10/26 16:09:38;;;;;;;11.32;8.77;;;11.40;99.90;;;;;;7349262;32;20134;-57
2023/10/26 16:13:44;;;;;;;9.00;8.02;;;11.40;99.90;;;;;;7346667;32;20287;-57
2023/10/26 16:17:46;;;;;;;12.25;9.10;;;11.30;99.90;;;;;;7354197;32;20331;-56
2023/10/26 16:21:48;;;;;;;9.63;8.32;;;11.20;99.90;;;;;;7349354;32;20199;-57
2023/10/26 16:25:50;;;;;;;9.20;7.78;;;11.30;99.90;;;;;;7344062;32;20103;-58
2023/10/26 16:29:51;;;;;;;11.73;8.82;;;11.20;99.90;;;;;;7350924;32;20151;-58
2023/10/26 16:33:53;;;;;;;11.23;8.70;;;11.10;99.90;;;;;;7347887;32;20129;-57
2023/10/26 16:37:55;;;;;;;12.18;9.77;;;11.10;99.90;;;;;;7353544;32;20249;-57
2023/10/26 16:41:57;;;;;;;12.77;10.10;;;11.10;99.90;;;;;;7352522;32;20606;-57
2023/10/26 16:45:59;;;;;;;15.63;10.65;;;11.10;99.90;;;;;;7347481;32;20281;-58
2023/10/26 16:50:01;;;;;;;13.98;9.73;;;11.10;99.90;;;;;;7344677;32;20199;-59
2023/10/26 16:54:03;;;;;;;12.75;9.85;;;11.10;99.90;;;;;;7349593;32;20255;-58
2023/10/26 16:58:06;;;;;;;14.48;10.13;;;11.10;99.90;;;;;;7342156;32;20115;-56
2023/10/26 17:02:08;;;;;;;15.75;10.55;;;11.00;99.90;;;;;;7343381;32;20190;-57
2023/10/26 17:06:10;;;;;;;13.20;10.45;;;10.90;99.90;;;;;;7344807;32;20757;-57
2023/10/26 17:10:12;;;;;;;13.00;10.55;;;10.90;99.90;;;;;;7339279;32;20186;-57
2023/10/26 17:14:14;;;;;;;12.90;9.90;;;10.90;99.90;;;;;;7341707;32;20111;-58
2023/10/26 17:18:15;;;;;;;14.35;10.63;;;10.90;99.90;;;;;;7348733;32;20115;-56
2023/10/26 17:22:20;;;;;;;12.25;9.43;;;10.90;99.90;;;;;;7341544;32;20492;-57
2023/10/26 17:26:22;;;;;;;10.20;7.93;;;10.80;99.90;;;;;;7339348;32;20209;-57
2023/10/26 17:30:24;;;;;;;10.65;7.50;;;10.80;99.90;;;;;;7345344;32;20249;-57
2023/10/26 17:34:26;;;;;;;8.65;7.75;;;10.90;99.90;;;;;;7349360;32;20135;-56
2023/10/26 17:38:28;;;;;;;11.85;7.55;;;10.80;99.90;;;;;;7325943;32;20257;-57
2023/10/26 17:42:30;;;;;;;8.48;7.18;;;10.80;99.90;;;;;;7346214;32;20138;-56
2023/10/26 17:46:32;;;;;;;7.80;6.25;;;10.70;99.90;;;;;;7343152;32;20111;-56
2023/10/26 17:50:41;;;;;;;7.55;6.45;;;10.60;99.90;;;;;;7347784;32;20116;-56
2023/10/26 17:54:43;;;;;;;8.55;6.87;;;10.60;99.90;;;;;;7352424;32;20289;-56
2023/10/26 17:58:44;;;;;;;7.35;5.93;;;10.60;99.90;;;;;;7356104;32;20532;-56
2023/10/26 18:02:46;;;;;;;6.65;5.72;;;10.70;99.90;;;;;;7350478;32;20788;-56
2023/10/26 18:06:48;;;;;;;6.62;5.45;;;10.80;99.90;;;;;;7349652;32;20591;-57
2023/10/26 18:10:49;;;;;;;6.50;5.80;;;10.70;99.90;;;;;;7359765;32;20126;-57
2023/10/26 18:14:51;;;;;;;7.90;6.10;;;10.80;99.90;;;;;;7345368;32;20139;-57
2023/10/26 18:18:53;;;;;;;9.45;5.12;;;10.70;99.90;;;;;;7352030;32;20250;-57
2023/10/26 18:22:55;;;;;;;6.12;5.18;;;10.70;99.90;;;;;;7353797;32;20099;-58
2023/10/26 18:26:56;;;;;;;7.32;5.40;;;10.80;99.90;;;;;;7351741;32;20104;-57
2023/10/26 18:31:02;;;;;;;6.43;5.37;;;10.80;99.90;;;;;;7354302;32;20209;-57
2023/10/26 18:35:05;;;;;;;6.70;5.70;;;10.80;99.90;;;;;;7343926;32;20154;-57
2023/10/26 18:39:07;;;;;;;6.70;5.47;;;10.80;99.90;;;;;;7350894;32;20166;-56
2023/10/26 18:43:09;;;;;;;6.65;5.25;;;10.80;99.90;;;;;;7346981;32;20284;-57
2023/10/26 18:47:10;;;;;;;6.97;5.78;;;10.80;99.90;;;;;;7354827;32;20111;-57
2023/10/26 18:51:12;;;;;;;7.82;5.75;;;10.80;99.90;;;;;;7360191;32;20579;-57
2023/10/26 18:55:15;;;;;;;6.90;5.93;;;10.80;99.90;;;;;;7358502;32;20111;-56
2023/10/26 18:59:17;;;;;;;7.43;6.35;;;10.90;99.90;;;;;;7352273;32;20137;-58
2023/10/26 19:03:21;;;;;;;9.60;6.25;;;10.90;99.90;;;;;;7352408;32;20266;-57
2023/10/26 19:07:22;;;;;;;6.95;5.47;;;10.90;99.90;;;;;;7277924;32;20166;-55
2023/10/26 19:11:24;;;;;;;7.25;6.03;;;10.90;99.90;;;;;;7347736;32;20107;-57
2023/10/26 19:15:26;;;;;;;10.05;6.60;;;10.90;99.90;;;;;;7293796;32;20240;-56
2023/10/26 19:19:28;;;;;;;9.25;6.50;;;10.90;99.90;;;;;;7348219;32;20167;-55
2023/10/26 19:23:30;;;;;;;8.02;6.85;;;10.90;99.90;;;;;;7338993;32;20555;-55
2023/10/26 19:27:32;;;;;;;9.23;5.78;;;10.90;99.90;;;;;;7341894;32;20228;-55
2023/10/26 19:31:34;;;;;;;6.93;6.22;;;10.90;99.90;;;;;;7346701;32;20134;-55
2023/10/26 19:35:37;;;;;;;9.40;6.55;;;11.00;99.90;;;;;;7332414;32;20426;-55
2023/10/26 19:39:38;;;;;;;7.00;6.20;;;11.00;99.90;;;;;;7346125;32;20194;-55
2023/10/26 19:43:40;;;;;;;8.18;5.75;;;10.90;99.90;;;;;;7344754;32;20218;-57
2023/10/26 19:47:43;;;;;;;10.68;6.47;;;11.00;99.90;;;;;;7341322;32;20556;-59
2023/10/26 19:56:49;;;;;;;9.77;6.75;;;10.90;99.90;;;;;;7334571;32;20225;-55
2023/10/26 20:00:51;;;;;;;8.48;6.68;;;10.80;99.90;;;;;;7344500;32;20821;-56
2023/10/26 20:04:53;;;;;;;10.82;8.25;;;10.90;99.90;;;;;;7337200;32;20781;-55
2023/10/26 20:08:55;;;;;;;9.57;7.43;;;10.90;99.90;;;;;;7351263;32;20172;-55
2023/10/26 20:12:57;;;;;;;11.95;7.53;;;10.90;99.90;;;;;;7355696;32;20257;-56
2023/10/26 20:16:59;;;;;;;8.23;7.30;;;10.90;99.90;;;;;;7337823;32;20103;-56
2023/10/26 20:21:01;;;;;;;11.57;7.68;;;10.80;99.90;;;;;;7344393;32;20234;-56
2023/10/26 20:25:04;;;;;;;9.75;7.65;;;10.90;99.90;;;;;;7335376;32;20112;-56
2023/10/26 20:29:06;;;;;;;8.90;7.15;;;10.90;99.90;;;;;;7343110;32;20162;-55
2023/10/26 20:33:08;;;;;;;10.68;7.90;;;10.90;99.90;;;;;;7347767;32;20551;-56
2023/10/26 20:37:10;;;;;;;7.70;6.65;;;10.90;99.90;;;;;;7347347;32;20155;-56
2023/10/26 20:41:12;;;;;;;9.98;7.35;;;10.90;99.90;;;;;;7345407;32;20550;-56
2023/10/26 20:45:14;;;;;;;11.95;8.43;;;10.90;99.90;;;;;;7350002;32;20155;-56
2023/10/26 20:49:16;;;;;;;10.18;8.20;;;10.80;99.90;;;;;;7354347;32;20142;-56
2023/10/26 20:53:20;;;;;;;8.65;7.30;;;10.80;99.90;;;;;;7351226;32;20481;-56